sensor_id;sensor_type;location;lat;lon;timestamp;temperature;humidity
23568;DHT22;11962;50.838;4.430;2022-11-18T00:01:24;10.90;99.90
23568;DHT22;11962;50.838;4.430;2022-11-18T00:03:51;11.00;99.90
23568;DHT22;11962;50.838;4.430;2022-11-18T00:06:19;11.00;99.90
23568;DHT22;11962;50.838;4.430;2022-11-18T00:08:44;11.10;99.90
23568;DHT22;11962;50.838;4.430;2022-11-18T00:11:13;11.10;99.90
23568;DHT22;11962;50.838;4.430;2022-11-18T00:13:58;11.10;99.90
23568;DHT22;11962;50.838;4.430;2022-11-18T00:16:48;11.10;99.90
23568;DHT22;11962;50.838;4.430;2022-11-18T00:19:14;11.10;99.90
23568;DHT22;11962;50.838;4.430;2022-11-18T00:21:40;11.20;99.90
23568;DHT22;11962;50.838;4.430;2022-11-18T00:24:06;11.20;99.90
23568;DHT22;11962;50.838;4.430;2022-11-18T00:26:32;11.20;99.90
23568;DHT22;11962;50.838;4.430;2022-11-18T00:28:57;11.30;99.90
23568;DHT22;11962;50.838;4.430;2022-11-18T00:31:23;11.30;99.90
23568;DHT22;11962;50.838;4.430;2022-11-18T00:33:48;11.30;99.90
23568;DHT22;11962;50.838;4.430;2022-11-18T00:36:14;11.30;99.90
23568;DHT22;11962;50.838;4.430;2022-11-18T00:38:40;11.40;99.90
23568;DHT22;11962;50.838;4.430;2022-11-18T00:41:11;11.30;99.90
23568;DHT22;11962;50.838;4.430;2022-11-18T00:43:37;11.30;99.90
23568;DHT22;11962;50.838;4.430;2022-11-18T00:46:04;11.30;99.90
23568;DHT22;11962;50.838;4.430;2022-11-18T00:48:30;11.40;99.90
23568;DHT22;11962;50.838;4.430;2022-11-18T00:50:57;11.40;99.90
23568;DHT22;11962;50.838;4.430;2022-11-18T00:53:24;11.30;99.90
23568;DHT22;11962;50.838;4.430;2022-11-18T00:55:51;11.40;99.90
23568;DHT22;11962;50.838;4.430;2022-11-18T00:58:17;11.40;99.90
23568;DHT22;11962;50.838;4.430;2022-11-18T01:00:45;11.40;99.90
23568;DHT22;11962;50.838;4.430;2022-11-18T01:03:13;11.50;99.90
23568;DHT22;11962;50.838;4.430;2022-11-18T01:05:39;11.50;99.90
23568;DHT22;11962;50.838;4.430;2022-11-18T01:08:07;11.50;99.90
23568;DHT22;11962;50.838;4.430;2022-11-18T01:10:34;11.50;99.90
23568;DHT22;11962;50.838;4.430;2022-11-18T01:12:59;11.50;99.90
23568;DHT22;11962;50.838;4.430;2022-11-18T01:15:51;11.50;99.90
23568;DHT22;11962;50.838;4.430;2022-11-18T01:18:18;11.50;99.90
23568;DHT22;11962;50.838;4.430;2022-11-18T01:20:45;11.50;99.90
23568;DHT22;11962;50.838;4.430;2022-11-18T01:23:11;11.50;99.90
23568;DHT22;11962;50.838;4.430;2022-11-18T01:25:39;11.50;99.90
23568;DHT22;11962;50.838;4.430;2022-11-18T01:28:05;11.50;99.90
23568;DHT22;11962;50.838;4.430;2022-11-18T01:30:38;11.50;99.90
23568;DHT22;11962;50.838;4.430;2022-11-18T01:33:04;11.50;99.90
23568;DHT22;11962;50.838;4.430;2022-11-18T01:35:41;11.50;99.90
23568;DHT22;11962;50.838;4.430;2022-11-18T01:38:10;11.40;99.90
23568;DHT22;11962;50.838;4.430;2022-11-18T01:40:36;11.30;99.90
23568;DHT22;11962;50.838;4.430;2022-11-18T01:43:09;11.20;99.90
23568;DHT22;11962;50.838;4.430;2022-11-18T01:45:37;11.10;99.90
23568;DHT22;11962;50.838;4.430;2022-11-18T01:48:10;11.10;99.90
23568;DHT22;11962;50.838;4.430;2022-11-18T01:50:40;11.10;99.90
23568;DHT22;11962;50.838;4.430;2022-11-18T01:53:15;11.00;99.90
23568;DHT22;11962;50.838;4.430;2022-11-18T01:55:45;10.90;99.90
23568;DHT22;11962;50.838;4.430;2022-11-18T01:58:36;10.90;99.90
23568;DHT22;11962;50.838;4.430;2022-11-18T02:01:03;10.90;99.90
23568;DHT22;11962;50.838;4.430;2022-11-18T02:03:29;10.90;99.90
23568;DHT22;11962;50.838;4.430;2022-11-18T02:05:57;10.90;99.90
23568;DHT22;11962;50.838;4.430;2022-11-18T02:08:24;10.80;99.90
23568;DHT22;11962;50.838;4.430;2022-11-18T02:10:50;10.80;99.90
23568;DHT22;11962;50.838;4.430;2022-11-18T02:13:16;10.90;99.90
23568;DHT22;11962;50.838;4.430;2022-11-18T02:18:27;10.80;99.90
23568;DHT22;11962;50.838;4.430;2022-11-18T02:29:40;10.80;99.90
23568;DHT22;11962;50.838;4.430;2022-11-18T02:32:18;10.70;99.90
23568;DHT22;11962;50.838;4.430;2022-11-18T02:35:05;10.60;99.90
23568;DHT22;11962;50.838;4.430;2022-11-18T02:37:44;10.60;99.90
23568;DHT22;11962;50.838;4.430;2022-11-18T02:40:20;10.60;99.90
23568;DHT22;11962;50.838;4.430;2022-11-18T02:42:51;10.60;99.90
23568;DHT22;11962;50.838;4.430;2022-11-18T02:45:18;10.60;99.90
23568;DHT22;11962;50.838;4.430;2022-11-18T02:47:47;10.60;99.90
23568;DHT22;11962;50.838;4.430;2022-11-18T02:50:18;10.50;99.90
23568;DHT22;11962;50.838;4.430;2022-11-18T02:52:46;10.50;99.90
23568;DHT22;11962;50.838;4.430;2022-11-18T02:55:15;10.50;99.90
23568;DHT22;11962;50.838;4.430;2022-11-18T02:57:43;10.40;99.90
23568;DHT22;11962;50.838;4.430;2022-11-18T03:00:10;10.40;99.90
23568;DHT22;11962;50.838;4.430;2022-11-18T03:02:43;10.40;99.90
23568;DHT22;11962;50.838;4.430;2022-11-18T03:05:18;10.30;99.90
23568;DHT22;11962;50.838;4.430;2022-11-18T03:07:48;10.30;99.90
23568;DHT22;11962;50.838;4.430;2022-11-18T03:10:16;10.30;99.90
23568;DHT22;11962;50.838;4.430;2022-11-18T03:16:11;10.20;99.90
23568;DHT22;11962;50.838;4.430;2022-11-18T03:19:20;10.20;99.90
23568;DHT22;11962;50.838;4.430;2022-11-18T03:22:16;10.10;99.90
23568;DHT22;11962;50.838;4.430;2022-11-18T03:24:55;10.10;99.90
23568;DHT22;11962;50.838;4.430;2022-11-18T03:27:30;10.10;99.90
23568;DHT22;11962;50.838;4.430;2022-11-18T03:30:05;10.10;99.90
23568;DHT22;11962;50.838;4.430;2022-11-18T03:32:36;10.00;99.90
23568;DHT22;11962;50.838;4.430;2022-11-18T03:35:08;10.00;99.90
23568;DHT22;11962;50.838;4.430;2022-11-18T03:37:36;9.90;99.90
23568;DHT22;11962;50.838;4.430;2022-11-18T03:40:14;9.90;99.90
23568;DHT22;11962;50.838;4.430;2022-11-18T03:42:44;9.90;99.90
23568;DHT22;11962;50.838;4.430;2022-11-18T03:45:18;9.90;99.90
23568;DHT22;11962;50.838;4.430;2022-11-18T03:47:59;9.80;99.90
23568;DHT22;11962;50.838;4.430;2022-11-18T03:50:31;9.90;99.90
23568;DHT22;11962;50.838;4.430;2022-11-18T03:52:58;9.80;99.90
23568;DHT22;11962;50.838;4.430;2022-11-18T03:55:38;9.80;99.90
23568;DHT22;11962;50.838;4.430;2022-11-18T03:58:12;9.80;99.90
23568;DHT22;11962;50.838;4.430;2022-11-18T04:00:43;9.80;99.90
23568;DHT22;11962;50.838;4.430;2022-11-18T04:03:10;9.80;99.90
23568;DHT22;11962;50.838;4.430;2022-11-18T04:05:39;9.90;99.90
23568;DHT22;11962;50.838;4.430;2022-11-18T04:08:20;9.80;99.90
23568;DHT22;11962;50.838;4.430;2022-11-18T04:10:57;9.70;99.90
23568;DHT22;11962;50.838;4.430;2022-11-18T04:13:32;9.70;99.90
23568;DHT22;11962;50.838;4.430;2022-11-18T04:15:59;9.70;99.90
23568;DHT22;11962;50.838;4.430;2022-11-18T04:18:25;9.70;99.90
23568;DHT22;11962;50.838;4.430;2022-11-18T04:20:52;9.70;99.90
23568;DHT22;11962;50.838;4.430;2022-11-18T04:23:17;9.70;99.90
23568;DHT22;11962;50.838;4.430;2022-11-18T04:25:43;9.60;99.90
23568;DHT22;11962;50.838;4.430;2022-11-18T04:28:08;9.60;99.90
23568;DHT22;11962;50.838;4.430;2022-11-18T04:30:34;9.60;99.90
23568;DHT22;11962;50.838;4.430;2022-11-18T04:33:00;9.60;99.90
23568;DHT22;11962;50.838;4.430;2022-11-18T04:35:26;9.60;99.90
23568;DHT22;11962;50.838;4.430;2022-11-18T04:37:52;9.60;99.90
23568;DHT22;11962;50.838;4.430;2022-11-18T04:40:18;9.60;99.90
23568;DHT22;11962;50.838;4.430;2022-11-18T04:42:44;9.60;99.90
23568;DHT22;11962;50.838;4.430;2022-11-18T04:45:10;9.60;99.90
23568;DHT22;11962;50.838;4.430;2022-11-18T04:47:36;9.50;99.90
23568;DHT22;11962;50.838;4.430;2022-11-18T04:50:02;9.50;99.90
23568;DHT22;11962;50.838;4.430;2022-11-18T04:52:28;9.50;99.90
23568;DHT22;11962;50.838;4.430;2022-11-18T04:54:54;9.50;99.90
23568;DHT22;11962;50.838;4.430;2022-11-18T04:57:20;9.40;99.90
23568;DHT22;11962;50.838;4.430;2022-11-18T04:59:45;9.40;99.90
23568;DHT22;11962;50.838;4.430;2022-11-18T05:02:11;9.40;99.90
23568;DHT22;11962;50.838;4.430;2022-11-18T05:04:37;9.50;99.90
23568;DHT22;11962;50.838;4.430;2022-11-18T05:07:04;9.30;99.90
23568;DHT22;11962;50.838;4.430;2022-11-18T05:09:30;9.30;99.90
23568;DHT22;11962;50.838;4.430;2022-11-18T05:11:56;9.30;99.90
23568;DHT22;11962;50.838;4.430;2022-11-18T05:14:40;9.40;99.90
23568;DHT22;11962;50.838;4.430;2022-11-18T05:17:07;9.30;99.90
23568;DHT22;11962;50.838;4.430;2022-11-18T05:19:33;9.30;99.90
23568;DHT22;11962;50.838;4.430;2022-11-18T05:21:59;9.30;99.90
23568;DHT22;11962;50.838;4.430;2022-11-18T05:24:25;9.30;99.90
23568;DHT22;11962;50.838;4.430;2022-11-18T05:26:51;9.30;99.90
23568;DHT22;11962;50.838;4.430;2022-11-18T05:29:20;9.30;99.90
23568;DHT22;11962;50.838;4.430;2022-11-18T05:31:46;9.30;99.90
23568;DHT22;11962;50.838;4.430;2022-11-18T05:34:13;9.30;99.90
23568;DHT22;11962;50.838;4.430;2022-11-18T05:36:42;9.30;99.90
23568;DHT22;11962;50.838;4.430;2022-11-18T05:39:07;9.30;99.90
23568;DHT22;11962;50.838;4.430;2022-11-18T05:41:33;9.40;99.90
23568;DHT22;11962;50.838;4.430;2022-11-18T05:44:17;9.30;99.90
23568;DHT22;11962;50.838;4.430;2022-11-18T05:46:43;9.30;99.90
23568;DHT22;11962;50.838;4.430;2022-11-18T05:49:09;9.30;99.90
23568;DHT22;11962;50.838;4.430;2022-11-18T05:51:34;9.40;99.90
23568;DHT22;11962;50.838;4.430;2022-11-18T05:54:03;9.40;99.90
23568;DHT22;11962;50.838;4.430;2022-11-18T05:56:35;9.40;99.90
23568;DHT22;11962;50.838;4.430;2022-11-18T05:59:02;9.40;99.90
23568;DHT22;11962;50.838;4.430;2022-11-18T06:03:57;9.40;99.90
23568;DHT22;11962;50.838;4.430;2022-11-18T06:06:24;9.40;99.90
23568;DHT22;11962;50.838;4.430;2022-11-18T06:09:02;9.50;99.90
23568;DHT22;11962;50.838;4.430;2022-11-18T06:11:30;9.40;99.90
23568;DHT22;11962;50.838;4.430;2022-11-18T06:14:04;9.40;99.90
23568;DHT22;11962;50.838;4.430;2022-11-18T06:16:33;9.40;99.90
23568;DHT22;11962;50.838;4.430;2022-11-18T06:19:01;9.40;99.90
23568;DHT22;11962;50.838;4.430;2022-11-18T06:21:27;9.40;99.90
23568;DHT22;11962;50.838;4.430;2022-11-18T06:23:53;9.40;99.90
23568;DHT22;11962;50.838;4.430;2022-11-18T06:26:19;9.40;99.90
23568;DHT22;11962;50.838;4.430;2022-11-18T06:28:46;9.40;99.90
23568;DHT22;11962;50.838;4.430;2022-11-18T06:31:13;9.40;99.90
23568;DHT22;11962;50.838;4.430;2022-11-18T06:33:38;9.40;99.90
23568;DHT22;11962;50.838;4.430;2022-11-18T06:36:04;9.50;99.90
23568;DHT22;11962;50.838;4.430;2022-11-18T06:38:30;9.40;99.90
23568;DHT22;11962;50.838;4.430;2022-11-18T06:41:01;9.40;99.90
23568;DHT22;11962;50.838;4.430;2022-11-18T06:43:27;9.40;99.90
23568;DHT22;11962;50.838;4.430;2022-11-18T06:46:13;9.40;99.90
23568;DHT22;11962;50.838;4.430;2022-11-18T06:48:58;9.40;99.90
23568;DHT22;11962;50.838;4.430;2022-11-18T06:51:24;9.40;99.90
23568;DHT22;11962;50.838;4.430;2022-11-18T06:53:50;9.40;99.90
23568;DHT22;11962;50.838;4.430;2022-11-18T06:56:18;9.40;99.90
23568;DHT22;11962;50.838;4.430;2022-11-18T06:58:44;9.50;99.90
23568;DHT22;11962;50.838;4.430;2022-11-18T07:01:12;9.50;99.90
23568;DHT22;11962;50.838;4.430;2022-11-18T07:03:41;9.50;99.90
23568;DHT22;11962;50.838;4.430;2022-11-18T07:06:09;9.60;99.90
23568;DHT22;11962;50.838;4.430;2022-11-18T07:08:38;9.60;99.90
23568;DHT22;11962;50.838;4.430;2022-11-18T07:11:08;9.70;99.90
23568;DHT22;11962;50.838;4.430;2022-11-18T07:13:35;9.70;99.90
23568;DHT22;11962;50.838;4.430;2022-11-18T07:16:22;9.80;99.90
23568;DHT22;11962;50.838;4.430;2022-11-18T07:18:49;10.00;99.90
23568;DHT22;11962;50.838;4.430;2022-11-18T07:21:18;10.10;99.90
23568;DHT22;11962;50.838;4.430;2022-11-18T07:23:44;10.20;99.90
23568;DHT22;11962;50.838;4.430;2022-11-18T07:26:10;10.40;99.90
23568;DHT22;11962;50.838;4.430;2022-11-18T07:28:35;10.40;99.90
23568;DHT22;11962;50.838;4.430;2022-11-18T07:31:02;10.50;99.90
23568;DHT22;11962;50.838;4.430;2022-11-18T07:33:29;10.60;99.90
23568;DHT22;11962;50.838;4.430;2022-11-18T07:35:58;10.70;99.90
23568;DHT22;11962;50.838;4.430;2022-11-18T07:38:24;10.70;99.90
23568;DHT22;11962;50.838;4.430;2022-11-18T07:40:50;10.70;99.90
23568;DHT22;11962;50.838;4.430;2022-11-18T07:43:15;10.80;99.90
23568;DHT22;11962;50.838;4.430;2022-11-18T07:45:41;10.90;99.90
23568;DHT22;11962;50.838;4.430;2022-11-18T07:48:06;11.00;99.90
23568;DHT22;11962;50.838;4.430;2022-11-18T07:50:32;11.00;99.90
23568;DHT22;11962;50.838;4.430;2022-11-18T07:52:58;11.10;99.90
23568;DHT22;11962;50.838;4.430;2022-11-18T07:55:26;11.20;99.90
23568;DHT22;11962;50.838;4.430;2022-11-18T07:57:51;11.30;99.90
23568;DHT22;11962;50.838;4.430;2022-11-18T08:00:17;11.40;99.90
23568;DHT22;11962;50.838;4.430;2022-11-18T08:02:43;11.40;99.90
23568;DHT22;11962;50.838;4.430;2022-11-18T08:05:09;11.50;99.90
23568;DHT22;11962;50.838;4.430;2022-11-18T08:07:35;11.40;99.90
23568;DHT22;11962;50.838;4.430;2022-11-18T08:10:00;11.40;99.90
23568;DHT22;11962;50.838;4.430;2022-11-18T08:12:28;11.50;99.90
23568;DHT22;11962;50.838;4.430;2022-11-18T08:14:55;11.50;99.90
23568;DHT22;11962;50.838;4.430;2022-11-18T08:17:21;11.50;99.90
23568;DHT22;11962;50.838;4.430;2022-11-18T08:19:46;11.50;99.90
23568;DHT22;11962;50.838;4.430;2022-11-18T08:22:12;11.50;99.90
23568;DHT22;11962;50.838;4.430;2022-11-18T08:24:38;11.50;99.90
23568;DHT22;11962;50.838;4.430;2022-11-18T08:27:03;11.50;99.90
23568;DHT22;11962;50.838;4.430;2022-11-18T08:29:29;11.60;99.90
23568;DHT22;11962;50.838;4.430;2022-11-18T08:31:55;11.60;99.90
23568;DHT22;11962;50.838;4.430;2022-11-18T08:34:20;11.60;99.90
23568;DHT22;11962;50.838;4.430;2022-11-18T08:36:46;11.50;99.90
23568;DHT22;11962;50.838;4.430;2022-11-18T08:39:12;11.60;99.90
23568;DHT22;11962;50.838;4.430;2022-11-18T08:41:42;11.60;99.90
23568;DHT22;11962;50.838;4.430;2022-11-18T08:44:11;11.60;99.90
23568;DHT22;11962;50.838;4.430;2022-11-18T08:46:38;11.70;99.90
23568;DHT22;11962;50.838;4.430;2022-11-18T08:49:04;11.70;99.90
23568;DHT22;11962;50.838;4.430;2022-11-18T08:51:29;11.80;99.90
23568;DHT22;11962;50.838;4.430;2022-11-18T08:53:56;11.80;99.90
23568;DHT22;11962;50.838;4.430;2022-11-18T08:56:22;11.90;99.90
23568;DHT22;11962;50.838;4.430;2022-11-18T08:58:48;11.90;99.90
23568;DHT22;11962;50.838;4.430;2022-11-18T09:01:14;11.90;99.90
23568;DHT22;11962;50.838;4.430;2022-11-18T09:03:40;12.00;99.90
23568;DHT22;11962;50.838;4.430;2022-11-18T09:06:12;12.00;99.90
23568;DHT22;11962;50.838;4.430;2022-11-18T09:08:38;12.00;99.90
23568;DHT22;11962;50.838;4.430;2022-11-18T09:11:09;12.00;99.90
23568;DHT22;11962;50.838;4.430;2022-11-18T09:13:35;12.20;99.90
23568;DHT22;11962;50.838;4.430;2022-11-18T09:16:02;12.30;99.90
23568;DHT22;11962;50.838;4.430;2022-11-18T09:18:34;12.40;99.90
23568;DHT22;11962;50.838;4.430;2022-11-18T09:21:02;12.40;99.90
23568;DHT22;11962;50.838;4.430;2022-11-18T09:23:30;12.60;99.90
23568;DHT22;11962;50.838;4.430;2022-11-18T09:25:57;12.60;99.90
23568;DHT22;11962;50.838;4.430;2022-11-18T09:28:26;12.70;99.90
23568;DHT22;11962;50.838;4.430;2022-11-18T09:30:51;12.60;99.90
23568;DHT22;11962;50.838;4.430;2022-11-18T09:33:17;12.70;99.90
23568;DHT22;11962;50.838;4.430;2022-11-18T09:35:43;12.70;99.90
23568;DHT22;11962;50.838;4.430;2022-11-18T09:38:10;12.80;99.90
23568;DHT22;11962;50.838;4.430;2022-11-18T09:41:04;12.80;99.90
23568;DHT22;11962;50.838;4.430;2022-11-18T09:46:33;12.80;99.90
23568;DHT22;11962;50.838;4.430;2022-11-18T09:49:10;12.80;99.90
23568;DHT22;11962;50.838;4.430;2022-11-18T09:51:44;12.90;99.90
23568;DHT22;11962;50.838;4.430;2022-11-18T09:54:24;13.20;99.90
23568;DHT22;11962;50.838;4.430;2022-11-18T09:56:52;13.20;99.90
23568;DHT22;11962;50.838;4.430;2022-11-18T09:59:20;13.30;99.90
23568;DHT22;11962;50.838;4.430;2022-11-18T10:01:47;13.40;99.90
23568;DHT22;11962;50.838;4.430;2022-11-18T10:04:15;13.40;99.90
23568;DHT22;11962;50.838;4.430;2022-11-18T10:06:41;13.40;99.90
23568;DHT22;11962;50.838;4.430;2022-11-18T10:15:20;13.50;99.90
23568;DHT22;11962;50.838;4.430;2022-11-18T10:20:46;13.50;99.90
23568;DHT22;11962;50.838;4.430;2022-11-18T10:25:45;13.70;99.90
23568;DHT22;11962;50.838;4.430;2022-11-18T10:28:16;13.90;99.90
23568;DHT22;11962;50.838;4.430;2022-11-18T10:30:42;14.00;99.90
23568;DHT22;11962;50.838;4.430;2022-11-18T10:33:25;14.10;99.90
23568;DHT22;11962;50.838;4.430;2022-11-18T10:38:39;14.30;99.90
23568;DHT22;11962;50.838;4.430;2022-11-18T10:41:08;14.40;99.90
23568;DHT22;11962;50.838;4.430;2022-11-18T10:43:45;14.30;99.90
23568;DHT22;11962;50.838;4.430;2022-11-18T10:46:31;14.30;99.90
23568;DHT22;11962;50.838;4.430;2022-11-18T10:49:14;14.20;99.90
23568;DHT22;11962;50.838;4.430;2022-11-18T10:52:11;14.20;99.90
23568;DHT22;11962;50.838;4.430;2022-11-18T10:54:37;14.10;99.90
23568;DHT22;11962;50.838;4.430;2022-11-18T10:57:22;14.10;99.90
23568;DHT22;11962;50.838;4.430;2022-11-18T10:59:53;14.30;99.90
23568;DHT22;11962;50.838;4.430;2022-11-18T11:02:41;14.20;99.90
23568;DHT22;11962;50.838;4.430;2022-11-18T11:05:19;14.20;99.90
23568;DHT22;11962;50.838;4.430;2022-11-18T11:07:45;14.20;99.90
23568;DHT22;11962;50.838;4.430;2022-11-18T11:10:25;14.20;99.90
23568;DHT22;11962;50.838;4.430;2022-11-18T11:12:55;14.10;99.90
23568;DHT22;11962;50.838;4.430;2022-11-18T11:15:43;14.00;99.90
23568;DHT22;11962;50.838;4.430;2022-11-18T11:18:36;14.00;99.90
23568;DHT22;11962;50.838;4.430;2022-11-18T11:21:19;13.90;99.90
23568;DHT22;11962;50.838;4.430;2022-11-18T11:23:47;13.90;99.90
23568;DHT22;11962;50.838;4.430;2022-11-18T11:29:33;14.00;99.90
23568;DHT22;11962;50.838;4.430;2022-11-18T11:32:28;14.00;99.90
23568;DHT22;11962;50.838;4.430;2022-11-18T11:35:24;14.10;99.90
23568;DHT22;11962;50.838;4.430;2022-11-18T11:38:49;14.20;99.90
23568;DHT22;11962;50.838;4.430;2022-11-18T11:49:24;14.30;99.90
23568;DHT22;11962;50.838;4.430;2022-11-18T11:52:01;14.40;99.90
23568;DHT22;11962;50.838;4.430;2022-11-18T11:54:56;14.40;99.90
23568;DHT22;11962;50.838;4.430;2022-11-18T12:00:03;14.30;99.90
23568;DHT22;11962;50.838;4.430;2022-11-18T12:02:35;14.30;99.90
23568;DHT22;11962;50.838;4.430;2022-11-18T12:05:14;14.40;99.90
23568;DHT22;11962;50.838;4.430;2022-11-18T12:07:46;14.40;99.90
23568;DHT22;11962;50.838;4.430;2022-11-18T12:10:28;14.40;99.90
23568;DHT22;11962;50.838;4.430;2022-11-18T12:18:45;14.20;99.90
23568;DHT22;11962;50.838;4.430;2022-11-18T12:24:34;14.10;99.90
23568;DHT22;11962;50.838;4.430;2022-11-18T12:29:52;14.00;99.90
23568;DHT22;11962;50.838;4.430;2022-11-18T12:35:03;14.00;99.90
23568;DHT22;11962;50.838;4.430;2022-11-18T12:42:36;14.00;99.90
23568;DHT22;11962;50.838;4.430;2022-11-18T12:45:46;14.00;99.90
23568;DHT22;11962;50.838;4.430;2022-11-18T12:48:38;13.90;99.90
23568;DHT22;11962;50.838;4.430;2022-11-18T12:53:41;13.90;99.90
23568;DHT22;11962;50.838;4.430;2022-11-18T12:58:52;13.90;99.90
23568;DHT22;11962;50.838;4.430;2022-11-18T13:01:20;13.90;99.90
23568;DHT22;11962;50.838;4.430;2022-11-18T13:03:50;13.80;99.90
23568;DHT22;11962;50.838;4.430;2022-11-18T13:06:23;13.90;99.90
23568;DHT22;11962;50.838;4.430;2022-11-18T13:08:54;13.90;99.90
23568;DHT22;11962;50.838;4.430;2022-11-18T13:11:21;13.90;99.90
23568;DHT22;11962;50.838;4.430;2022-11-18T13:14:11;13.90;99.90
23568;DHT22;11962;50.838;4.430;2022-11-18T13:16:56;14.00;99.90
23568;DHT22;11962;50.838;4.430;2022-11-18T13:20:01;14.00;99.90
23568;DHT22;11962;50.838;4.430;2022-11-18T13:22:48;14.00;99.90
23568;DHT22;11962;50.838;4.430;2022-11-18T13:25:33;14.10;99.90
23568;DHT22;11962;50.838;4.430;2022-11-18T13:30:35;13.90;99.90
23568;DHT22;11962;50.838;4.430;2022-11-18T13:33:02;14.00;99.90
23568;DHT22;11962;50.838;4.430;2022-11-18T13:35:28;14.00;99.90
23568;DHT22;11962;50.838;4.430;2022-11-18T13:38:01;14.00;99.90
23568;DHT22;11962;50.838;4.430;2022-11-18T13:40:37;14.00;99.90
23568;DHT22;11962;50.838;4.430;2022-11-18T13:43:03;14.00;99.90
23568;DHT22;11962;50.838;4.430;2022-11-18T13:45:29;14.00;99.90
23568;DHT22;11962;50.838;4.430;2022-11-18T13:48:08;14.00;99.90
23568;DHT22;11962;50.838;4.430;2022-11-18T13:50:40;14.00;99.90
23568;DHT22;11962;50.838;4.430;2022-11-18T14:01:22;14.10;99.90
23568;DHT22;11962;50.838;4.430;2022-11-18T14:03:59;14.20;99.90
23568;DHT22;11962;50.838;4.430;2022-11-18T14:06:30;14.20;99.90
23568;DHT22;11962;50.838;4.430;2022-11-18T14:11:58;14.20;99.90
23568;DHT22;11962;50.838;4.430;2022-11-18T14:14:31;14.30;99.90
23568;DHT22;11962;50.838;4.430;2022-11-18T14:17:21;14.40;99.90
23568;DHT22;11962;50.838;4.430;2022-11-18T14:19:50;14.40;99.90
23568;DHT22;11962;50.838;4.430;2022-11-18T14:22:28;14.50;99.90
23568;DHT22;11962;50.838;4.430;2022-11-18T14:25:16;14.50;99.90
23568;DHT22;11962;50.838;4.430;2022-11-18T14:27:51;14.50;99.90
23568;DHT22;11962;50.838;4.430;2022-11-18T14:30:34;14.50;99.90
23568;DHT22;11962;50.838;4.430;2022-11-18T14:33:10;14.50;99.90
23568;DHT22;11962;50.838;4.430;2022-11-18T14:35:41;14.50;99.90
23568;DHT22;11962;50.838;4.430;2022-11-18T14:38:15;14.50;99.90
23568;DHT22;11962;50.838;4.430;2022-11-18T14:40:41;14.50;99.90
23568;DHT22;11962;50.838;4.430;2022-11-18T14:43:08;14.40;99.90
23568;DHT22;11962;50.838;4.430;2022-11-18T14:45:34;14.40;99.90
23568;DHT22;11962;50.838;4.430;2022-11-18T14:47:59;14.40;99.90
23568;DHT22;11962;50.838;4.430;2022-11-18T14:50:26;14.40;99.90
23568;DHT22;11962;50.838;4.430;2022-11-18T14:52:51;14.40;99.90
23568;DHT22;11962;50.838;4.430;2022-11-18T14:55:17;14.50;99.90
23568;DHT22;11962;50.838;4.430;2022-11-18T14:57:42;14.40;99.90
23568;DHT22;11962;50.838;4.430;2022-11-18T15:00:12;14.30;99.90
23568;DHT22;11962;50.838;4.430;2022-11-18T15:02:38;14.30;99.90
23568;DHT22;11962;50.838;4.430;2022-11-18T15:05:04;14.20;99.90
23568;DHT22;11962;50.838;4.430;2022-11-18T15:07:30;14.20;99.90
23568;DHT22;11962;50.838;4.430;2022-11-18T15:09:55;14.10;99.90
23568;DHT22;11962;50.838;4.430;2022-11-18T15:12:21;14.20;99.90
23568;DHT22;11962;50.838;4.430;2022-11-18T15:14:46;14.20;99.90
23568;DHT22;11962;50.838;4.430;2022-11-18T15:17:12;14.10;99.90
23568;DHT22;11962;50.838;4.430;2022-11-18T15:19:38;14.10;99.90
23568;DHT22;11962;50.838;4.430;2022-11-18T15:22:06;14.00;99.90
23568;DHT22;11962;50.838;4.430;2022-11-18T15:24:31;14.10;99.90
23568;DHT22;11962;50.838;4.430;2022-11-18T15:26:57;14.00;99.90
23568;DHT22;11962;50.838;4.430;2022-11-18T15:29:24;14.00;99.90
23568;DHT22;11962;50.838;4.430;2022-11-18T15:31:50;13.90;99.90
23568;DHT22;11962;50.838;4.430;2022-11-18T15:34:17;13.90;99.90
23568;DHT22;11962;50.838;4.430;2022-11-18T15:36:44;13.90;99.90
23568;DHT22;11962;50.838;4.430;2022-11-18T15:39:10;13.80;99.90
23568;DHT22;11962;50.838;4.430;2022-11-18T15:41:38;13.80;99.90
23568;DHT22;11962;50.838;4.430;2022-11-18T15:44:03;13.70;99.90
23568;DHT22;11962;50.838;4.430;2022-11-18T15:46:29;13.70;99.90
23568;DHT22;11962;50.838;4.430;2022-11-18T15:48:58;13.90;99.90
23568;DHT22;11962;50.838;4.430;2022-11-18T15:51:25;13.80;99.90
23568;DHT22;11962;50.838;4.430;2022-11-18T15:53:51;13.80;99.90
23568;DHT22;11962;50.838;4.430;2022-11-18T15:58:56;13.60;99.90
23568;DHT22;11962;50.838;4.430;2022-11-18T16:01:24;13.60;99.90
23568;DHT22;11962;50.838;4.430;2022-11-18T16:03:50;13.50;99.90
23568;DHT22;11962;50.838;4.430;2022-11-18T16:06:15;13.50;99.90
23568;DHT22;11962;50.838;4.430;2022-11-18T16:08:41;13.50;99.90
23568;DHT22;11962;50.838;4.430;2022-11-18T16:11:10;13.50;99.90
23568;DHT22;11962;50.838;4.430;2022-11-18T16:14:03;13.40;99.90
23568;DHT22;11962;50.838;4.430;2022-11-18T16:16:29;13.40;99.90
23568;DHT22;11962;50.838;4.430;2022-11-18T16:18:56;13.40;99.90
23568;DHT22;11962;50.838;4.430;2022-11-18T16:21:23;13.40;99.90
23568;DHT22;11962;50.838;4.430;2022-11-18T16:23:49;13.40;99.90
23568;DHT22;11962;50.838;4.430;2022-11-18T16:26:15;13.30;99.90
23568;DHT22;11962;50.838;4.430;2022-11-18T16:28:40;13.30;99.90
23568;DHT22;11962;50.838;4.430;2022-11-18T16:31:06;13.20;99.90
23568;DHT22;11962;50.838;4.430;2022-11-18T16:33:51;13.20;99.90
23568;DHT22;11962;50.838;4.430;2022-11-18T16:36:16;13.10;99.90
23568;DHT22;11962;50.838;4.430;2022-11-18T16:38:42;13.20;99.90
23568;DHT22;11962;50.838;4.430;2022-11-18T16:41:08;13.10;99.90
23568;DHT22;11962;50.838;4.430;2022-11-18T16:43:52;13.10;99.90
23568;DHT22;11962;50.838;4.430;2022-11-18T16:46:18;13.10;99.90
23568;DHT22;11962;50.838;4.430;2022-11-18T16:48:43;13.00;99.90
23568;DHT22;11962;50.838;4.430;2022-11-18T16:53:41;12.90;99.90
23568;DHT22;11962;50.838;4.430;2022-11-18T16:56:07;12.90;99.90
23568;DHT22;11962;50.838;4.430;2022-11-18T16:58:33;12.90;99.90
23568;DHT22;11962;50.838;4.430;2022-11-18T17:00:58;12.90;99.90
23568;DHT22;11962;50.838;4.430;2022-11-18T17:03:24;12.90;99.90
23568;DHT22;11962;50.838;4.430;2022-11-18T17:05:50;12.90;99.90
23568;DHT22;11962;50.838;4.430;2022-11-18T17:08:15;12.90;99.90
23568;DHT22;11962;50.838;4.430;2022-11-18T17:10:41;12.90;99.90
23568;DHT22;11962;50.838;4.430;2022-11-18T17:13:06;12.80;99.90
23568;DHT22;11962;50.838;4.430;2022-11-18T17:15:34;12.80;99.90
23568;DHT22;11962;50.838;4.430;2022-11-18T17:18:00;12.80;99.90
23568;DHT22;11962;50.838;4.430;2022-11-18T17:20:25;12.80;99.90
23568;DHT22;11962;50.838;4.430;2022-11-18T17:22:51;12.80;99.90
23568;DHT22;11962;50.838;4.430;2022-11-18T17:25:17;12.80;99.90
23568;DHT22;11962;50.838;4.430;2022-11-18T17:27:42;12.70;99.90